createdAt,value
2023-03-06T00:37:12.898Z,437.00
2023-03-06T00:38:12.900Z,437.00
2023-03-06T00:39:12.939Z,437.00
2023-03-06T00:40:12.986Z,439.00
2023-03-06T00:41:12.988Z,441.00
2023-03-06T00:42:13.046Z,443.00
2023-03-06T01:00:13.565Z,437.00
2023-03-06T01:01:13.606Z,437.00
2023-03-06T01:02:13.621Z,438.00
2023-03-06T01:03:13.609Z,437.00
2023-03-06T01:04:13.658Z,438.00
2023-03-06T01:05:13.666Z,436.00
2023-03-06T01:06:13.694Z,435.00
2023-03-06T01:07:13.734Z,436.00
2023-03-06T01:08:13.717Z,437.00
2023-03-06T01:09:13.761Z,438.00
2023-03-06T01:10:13.775Z,440.00
2023-03-06T01:11:13.782Z,441.00
2023-03-06T01:12:13.791Z,441.00
2023-03-06T01:13:13.797Z,439.00
2023-03-06T01:14:13.796Z,437.00
2023-03-06T01:15:13.809Z,437.00
2023-03-06T01:16:13.851Z,438.00
2023-03-06T01:17:14.354Z,440.00
2023-03-06T01:18:13.771Z,440.00
2023-03-06T01:19:13.780Z,439.00
2023-03-06T01:20:13.781Z,440.00
2023-03-06T01:21:13.804Z,442.00
2023-03-06T01:22:13.806Z,438.00
2023-03-06T01:23:13.818Z,439.00
2023-03-06T01:24:13.801Z,440.00
2023-03-06T01:25:13.824Z,441.00
2023-03-06T01:26:13.811Z,442.00
2023-03-06T01:27:13.835Z,443.00
2023-03-06T01:28:13.847Z,442.00
2023-03-06T01:29:13.905Z,440.00
2023-03-06T01:30:13.934Z,439.00
2023-03-06T01:32:14.035Z,436.00
2023-03-06T01:33:14.028Z,437.00
2023-03-06T01:35:14.090Z,438.00
2023-03-06T01:40:14.262Z,439.00
2023-03-06T01:41:14.341Z,440.00
2023-03-06T01:42:14.339Z,442.00
2023-03-06T01:43:14.450Z,441.00
2023-03-06T01:44:14.382Z,442.00
2023-03-06T01:45:14.574Z,443.00
2023-03-06T01:46:14.427Z,440.00
2023-03-06T01:47:14.443Z,439.00
2023-03-06T01:48:14.479Z,439.00
2023-03-06T01:49:14.490Z,439.00
2023-03-06T01:50:14.553Z,440.00
2023-03-06T01:51:14.599Z,437.00
2023-03-06T01:52:14.684Z,436.00
2023-03-06T01:53:14.658Z,436.00
2023-03-06T01:54:14.691Z,437.00
2023-03-06T01:55:14.713Z,437.00
2023-03-06T01:56:14.718Z,439.00
2023-03-06T01:57:14.778Z,438.00
2023-03-06T01:58:14.813Z,435.00
2023-03-06T01:59:14.847Z,435.00
2023-03-06T02:00:14.899Z,436.00
2023-03-06T02:01:15.049Z,437.00
2023-03-06T02:02:14.986Z,435.00
2023-03-06T02:03:14.977Z,436.00
2023-03-06T02:04:15.006Z,438.00
2023-03-06T02:05:15.064Z,440.00
2023-03-06T02:08:15.149Z,437.00
2023-03-06T02:57:16.743Z,438.00
2023-03-06T03:04:16.915Z,447.00
2023-03-06T03:05:16.908Z,448.00
2023-03-06T03:06:16.937Z,447.00
2023-03-06T03:07:16.998Z,449.00
2023-03-06T03:08:17.030Z,450.00
2023-03-06T03:27:17.857Z,445.00
2023-03-06T03:28:17.926Z,446.00
2023-03-06T03:29:17.967Z,447.00
2023-03-06T03:30:18.048Z,448.00
2023-03-06T03:31:18.122Z,447.00
2023-03-06T03:32:18.206Z,447.00
2023-03-06T03:33:18.193Z,448.00
2023-03-06T03:34:18.271Z,449.00
2023-03-06T03:35:18.313Z,449.00
2023-03-06T03:36:18.322Z,450.00
2023-03-06T03:37:18.350Z,449.00
2023-03-06T03:38:18.429Z,447.00
2023-03-06T03:39:18.438Z,447.00
2023-03-06T03:40:18.456Z,446.00
2023-03-06T03:41:18.528Z,447.00
2023-03-06T04:24:20.217Z,451.00
2023-03-06T04:25:20.249Z,452.00
2023-03-06T04:26:20.285Z,450.00
2023-03-06T04:27:20.337Z,450.00
2023-03-06T04:28:20.313Z,451.00
2023-03-06T04:29:20.366Z,450.00
2023-03-06T04:30:20.436Z,449.00
2023-03-06T04:31:20.534Z,448.00
2023-03-06T04:32:21.649Z,449.00
2023-03-06T04:33:20.561Z,446.00
2023-03-06T04:34:20.608Z,442.00
2023-03-06T04:35:20.707Z,441.00
2023-03-06T04:36:20.734Z,443.00
2023-03-06T04:37:20.771Z,443.00
2023-03-06T04:38:20.816Z,444.00
2023-03-06T04:39:20.862Z,443.00
2023-03-06T04:40:20.902Z,443.00
2023-03-06T04:41:20.915Z,444.00
2023-03-06T04:42:20.952Z,443.00
2023-03-06T04:43:20.982Z,446.00
2023-03-06T04:44:20.984Z,447.00
2023-03-06T04:45:21.150Z,446.00
2023-03-06T04:46:21.046Z,447.00
2023-03-06T04:47:21.083Z,446.00
2023-03-06T04:48:21.102Z,444.00
2023-03-06T04:49:21.116Z,444.00
2023-03-06T04:50:21.128Z,446.00
2023-03-06T04:51:21.223Z,446.00
2023-03-06T04:52:21.194Z,446.00
2023-03-06T04:53:21.233Z,446.00
2023-03-06T04:54:21.274Z,445.00
2023-03-06T05:04:21.613Z,445.00
2023-03-06T05:05:21.646Z,447.00
2023-03-06T05:06:21.691Z,448.00
2023-03-06T05:07:21.736Z,446.00
2023-03-06T05:08:21.723Z,448.00
2023-03-06T05:09:21.785Z,447.00
2023-03-06T05:16:22.062Z,448.00
2023-03-06T05:17:22.079Z,446.00
2023-03-06T05:18:22.142Z,446.00
2023-03-06T05:19:22.170Z,448.00
2023-03-06T05:20:22.232Z,448.00
2023-03-06T05:21:22.294Z,449.00
2023-03-06T05:22:22.346Z,450.00
2023-03-06T05:23:22.400Z,449.00
2023-03-06T05:24:22.440Z,448.00
2023-03-06T06:45:50.740Z,574.00
2023-03-06T09:22:47.945Z,820.00
2023-03-06T09:23:47.851Z,824.00
2023-03-06T09:24:47.868Z,749.00
2023-03-06T09:25:47.913Z,820.00
2023-03-06T09:26:49.408Z,845.00
2023-03-06T09:27:51.442Z,838.00
2023-03-06T09:28:48.923Z,835.00
2023-03-06T09:29:48.019Z,839.00
2023-03-06T09:30:47.994Z,760.00
2023-03-06T09:31:47.905Z,807.00
2023-03-06T09:32:47.964Z,821.00
2023-03-06T09:33:47.866Z,820.00
2023-03-06T09:34:47.896Z,778.00
2023-03-06T09:35:47.959Z,802.00
2023-03-06T09:36:56.872Z,847.00
2023-03-06T09:37:49.218Z,844.00
2023-03-06T09:38:48.143Z,830.00
2023-03-06T09:39:47.880Z,823.00
2023-03-06T09:40:47.930Z,816.00
2023-03-06T09:41:47.901Z,817.00
2023-03-06T09:58:48.813Z,954.00
2023-03-06T09:59:48.884Z,972.00
2023-03-06T10:00:48.940Z,992.00
2023-03-06T10:01:48.933Z,1011.00
2023-03-06T10:02:49.131Z,1022.00
2023-03-06T10:03:49.093Z,1043.00
2023-03-06T10:04:49.137Z,1053.00
2023-03-06T10:05:49.117Z,1064.00
2023-03-06T10:06:49.192Z,1073.00
2023-03-06T10:07:49.108Z,1090.00
2023-03-06T10:08:49.138Z,1111.00
2023-03-06T10:09:49.355Z,1131.00
2023-03-06T10:10:49.205Z,1139.00
2023-03-06T10:11:49.330Z,1152.00
2023-03-06T10:12:49.304Z,1162.00
2023-03-06T10:13:49.459Z,1173.00
2023-03-06T10:14:49.489Z,1185.00
2023-03-06T10:15:49.426Z,1205.00
2023-03-06T10:16:49.482Z,1218.00
2023-03-06T10:17:49.503Z,1233.00
2023-03-06T10:18:50.555Z,1251.00
2023-03-06T10:19:49.574Z,1250.00
2023-03-06T10:20:49.592Z,1253.00
2023-03-06T10:21:49.586Z,1258.00
2023-03-06T10:23:00.740Z,1268.00
2023-03-06T10:23:50.968Z,1281.00
2023-03-06T10:24:49.576Z,1299.00
2023-03-06T10:25:49.562Z,1311.00
2023-03-06T10:26:49.680Z,1316.00
2023-03-06T10:27:49.691Z,1329.00
2023-03-06T10:28:49.579Z,1341.00
2023-03-06T10:30:01.658Z,1351.00
2023-03-06T10:30:50.568Z,1360.00
2023-03-06T10:31:49.773Z,1374.00
2023-03-06T10:32:49.752Z,1380.00
2023-03-06T10:33:49.535Z,1384.00
2023-03-06T10:34:49.508Z,1388.00
2023-03-06T10:35:49.584Z,1391.00
2023-03-06T10:36:49.540Z,1396.00
2023-03-06T10:37:49.508Z,1399.00
2023-03-06T10:38:49.988Z,1406.00
2023-03-06T10:39:49.496Z,1409.00
2023-03-06T10:40:49.519Z,1408.00
2023-03-06T10:41:49.566Z,1406.00
2023-03-06T10:42:56.194Z,1405.00
2023-03-06T10:43:50.631Z,1405.00
2023-03-06T10:44:49.554Z,1409.00
2023-03-06T10:45:49.852Z,1420.00
2023-03-06T10:46:49.573Z,1435.00
2023-03-06T10:47:49.559Z,1453.00
2023-03-06T10:48:49.995Z,1457.00
2023-03-06T10:49:49.591Z,1457.00
2023-03-06T10:50:49.499Z,1457.00
2023-03-06T10:51:49.532Z,1484.00
2023-03-06T10:52:49.587Z,1508.00
2023-03-06T10:53:49.675Z,1528.00
2023-03-06T10:54:49.704Z,1539.00
2023-03-06T10:55:49.782Z,1588.00
2023-03-06T10:56:49.814Z,1605.00
2023-03-06T10:57:49.881Z,1618.00
2023-03-06T10:58:49.926Z,1632.00
2023-03-06T10:59:50.010Z,1658.00
2023-03-06T11:00:50.039Z,1673.00
2023-03-06T11:01:50.096Z,1695.00
2023-03-06T11:02:50.139Z,1704.00
2023-03-06T11:03:50.231Z,1749.00
2023-03-06T11:04:50.307Z,1735.00
2023-03-06T11:05:50.306Z,1743.00
2023-03-06T11:06:50.384Z,1759.00
2023-03-06T11:07:50.425Z,1773.00
2023-03-06T11:08:50.497Z,1787.00
2023-03-06T11:09:50.537Z,1795.00
2023-03-06T11:10:50.577Z,1804.00
2023-03-06T11:11:51.520Z,1814.00
2023-03-06T11:12:50.657Z,1819.00
2023-03-06T11:13:50.701Z,1842.00
2023-03-06T11:14:50.688Z,1848.00
2023-03-06T11:15:50.799Z,1850.00
2023-03-06T11:16:50.699Z,1854.00
2023-03-06T11:17:50.688Z,1852.00
2023-03-06T11:19:51.024Z,1861.00
2023-03-06T11:20:52.846Z,1869.00
2023-03-06T11:21:50.699Z,1877.00
2023-03-06T11:22:50.730Z,1887.00
2023-03-06T11:23:50.738Z,1893.00
2023-03-06T11:24:50.756Z,1901.00
2023-03-06T11:25:50.780Z,1910.00
2023-03-06T11:26:51.282Z,1919.00
2023-03-06T11:27:50.794Z,1928.00
2023-03-06T11:28:50.853Z,1933.00
2023-03-06T11:29:50.892Z,1938.00
2023-03-06T11:30:50.891Z,1948.00
2023-03-06T11:31:50.923Z,1954.00
2023-03-06T11:32:50.981Z,1956.00
2023-03-06T11:33:51.034Z,1949.00
2023-03-06T11:34:51.008Z,1945.00
2023-03-06T11:35:51.079Z,1938.00
2023-03-06T11:36:51.117Z,1898.00
2023-03-06T11:37:51.131Z,1855.00
2023-03-06T11:38:51.122Z,1807.00
2023-03-06T11:39:51.493Z,1508.00
2023-03-06T11:40:51.141Z,1249.00
2023-03-06T11:41:51.179Z,1360.00
2023-03-06T11:42:51.175Z,1218.00
2023-03-06T11:43:51.222Z,1092.00
2023-03-06T11:44:51.530Z,1211.00
2023-03-06T11:45:51.262Z,973.00
2023-03-06T11:46:51.332Z,956.00
2023-03-06T11:47:51.350Z,979.00
2023-03-06T11:48:51.388Z,922.00
2023-03-06T11:49:51.547Z,1030.00
2023-03-06T11:50:51.484Z,903.00
2023-03-06T11:51:51.499Z,924.00
2023-03-06T11:52:51.548Z,917.00
2023-03-06T11:53:51.587Z,815.00
2023-03-06T11:54:52.042Z,806.00
2023-03-06T11:55:51.631Z,824.00
2023-03-06T11:56:51.650Z,812.00
2023-03-06T11:57:51.669Z,812.00
2023-03-06T11:58:51.653Z,793.00
2023-03-06T11:59:51.694Z,733.00
2023-03-06T12:00:51.744Z,711.00
2023-03-06T12:01:51.784Z,702.00
2023-03-06T12:02:51.762Z,718.00
2023-03-06T12:03:51.748Z,781.00
2023-03-06T12:04:52.021Z,714.00
2023-03-06T12:05:51.733Z,668.00
2023-03-06T12:06:51.763Z,674.00
2023-03-06T12:07:51.799Z,671.00
2023-03-06T12:08:51.774Z,693.00
2023-03-06T12:09:51.811Z,698.00
2023-03-06T12:10:52.309Z,626.00
2023-03-06T12:11:51.801Z,640.00
2023-03-06T12:12:51.814Z,646.00
2023-03-06T12:14:52.008Z,640.00
2023-03-06T12:15:51.821Z,630.00
2023-03-06T12:16:51.866Z,676.00
2023-03-06T12:17:51.838Z,677.00
2023-03-06T12:18:51.861Z,630.00
2023-03-06T12:19:52.022Z,621.00
2023-03-06T12:20:51.869Z,627.00
2023-03-06T12:21:52.407Z,628.00
2023-03-06T12:22:57.749Z,639.00
2023-03-06T12:24:52.064Z,666.00
2023-03-06T12:25:51.961Z,648.00
2023-03-06T12:26:51.948Z,649.00
2023-03-06T12:27:51.974Z,673.00
2023-03-06T12:28:51.950Z,670.00
2023-03-06T12:29:51.947Z,680.00
2023-03-06T12:30:52.054Z,686.00
2023-03-06T12:31:51.902Z,722.00
2023-03-06T12:32:52.013Z,752.00
2023-03-06T12:33:51.912Z,752.00
2023-03-06T12:34:51.928Z,755.00
2023-03-06T12:36:51.964Z,770.00
2023-03-06T12:37:51.962Z,774.00
2023-03-06T12:38:51.977Z,777.00
2023-03-06T12:39:51.957Z,780.00
2023-03-06T12:40:51.998Z,781.00
2023-03-06T12:41:51.994Z,781.00
2023-03-06T12:42:52.517Z,782.00
2023-03-06T12:43:52.052Z,782.00
2023-03-06T12:44:52.025Z,781.00
2023-03-06T12:45:52.160Z,782.00
2023-03-06T12:46:52.023Z,781.00
2023-03-06T12:47:52.053Z,778.00
2023-03-06T12:48:52.048Z,778.00
2023-03-06T12:49:52.044Z,776.00
2023-03-06T12:50:52.052Z,775.00
2023-03-06T12:51:52.077Z,774.00
2023-03-06T12:52:52.121Z,776.00
2023-03-06T12:53:52.057Z,777.00
2023-03-06T12:54:52.080Z,776.00
2023-03-06T12:55:52.100Z,774.00
2023-03-06T12:56:52.062Z,778.00
2023-03-06T12:57:52.052Z,781.00
2023-03-06T12:58:52.053Z,781.00
2023-03-06T12:59:52.163Z,781.00
2023-03-06T13:00:55.294Z,780.00
2023-03-06T13:01:53.139Z,782.00
2023-03-06T13:02:52.118Z,780.00
2023-03-06T13:03:52.074Z,780.00
2023-03-06T13:04:52.099Z,783.00
2023-03-06T13:05:52.181Z,784.00
2023-03-06T13:06:52.101Z,786.00
2023-03-06T13:07:52.084Z,785.00
2023-03-06T13:08:52.116Z,783.00
2023-03-06T13:09:52.124Z,780.00
2023-03-06T13:10:52.128Z,779.00
2023-03-06T13:11:52.094Z,779.00
2023-03-06T13:12:52.142Z,776.00
2023-03-06T13:13:52.155Z,775.00
2023-03-06T13:14:54.675Z,774.00
2023-03-06T13:15:52.195Z,772.00
2023-03-06T13:16:52.214Z,773.00
2023-03-06T13:17:52.179Z,775.00
2023-03-06T13:18:52.197Z,776.00
2023-03-06T13:19:52.166Z,774.00
2023-03-06T13:20:52.179Z,771.00
2023-03-06T13:21:52.162Z,771.00
2023-03-06T13:22:52.164Z,774.00
2023-03-06T13:23:52.169Z,776.00
2023-03-06T13:24:54.929Z,776.00
2023-03-06T13:25:52.168Z,774.00
2023-03-06T13:26:52.141Z,771.00
2023-03-06T13:27:52.139Z,774.00
2023-03-06T13:28:52.125Z,775.00
2023-03-06T13:29:52.082Z,775.00
2023-03-06T13:30:53.290Z,774.00
2023-03-06T13:31:52.068Z,774.00
2023-03-06T13:32:52.074Z,776.00
2023-03-06T13:33:52.101Z,776.00
2023-03-06T13:34:52.061Z,772.00
2023-03-06T13:35:52.107Z,769.00
2023-03-06T13:36:52.023Z,768.00
2023-03-06T13:37:52.086Z,769.00
2023-03-06T13:38:52.043Z,771.00
2023-03-06T13:39:52.052Z,769.00
2023-03-06T13:40:52.041Z,766.00
2023-03-06T13:41:52.002Z,766.00
2023-03-06T13:42:52.007Z,763.00
2023-03-06T13:43:52.010Z,762.00
2023-03-06T13:44:51.969Z,764.00
2023-03-06T13:45:52.021Z,766.00
2023-03-06T13:46:51.983Z,766.00
2023-03-06T13:48:30.272Z,766.00
2023-03-06T13:48:52.968Z,764.00
2023-03-06T13:49:51.970Z,763.00
2023-03-06T13:50:51.962Z,760.00
2023-03-06T13:51:51.965Z,757.00
2023-03-06T13:52:53.690Z,755.00
2023-03-06T13:53:51.960Z,753.00
2023-03-06T13:54:51.923Z,751.00
2023-03-06T13:55:51.938Z,753.00
2023-03-06T13:56:51.888Z,754.00
2023-03-06T13:57:51.921Z,756.00
2023-03-06T13:58:51.897Z,756.00
2023-03-06T13:59:57.005Z,755.00
2023-03-06T14:00:52.871Z,755.00
2023-03-06T14:01:51.974Z,756.00
2023-03-06T14:02:51.911Z,756.00
2023-03-06T14:03:51.852Z,756.00
2023-03-06T14:04:51.880Z,755.00
2023-03-06T14:05:51.840Z,752.00
2023-03-06T14:06:51.833Z,749.00
2023-03-06T14:07:51.849Z,749.00
2023-03-06T14:08:51.819Z,749.00
2023-03-06T14:09:51.816Z,747.00
2023-03-06T14:10:51.815Z,744.00
2023-03-06T14:11:51.803Z,744.00
2023-03-06T14:12:51.815Z,741.00
2023-03-06T14:13:51.847Z,738.00
2023-03-06T14:14:51.885Z,737.00
2023-03-06T14:15:51.986Z,736.00
2023-03-06T14:16:52.042Z,737.00
2023-03-06T14:17:52.048Z,738.00
2023-03-06T14:18:52.099Z,738.00
2023-03-06T14:19:52.132Z,739.00
2023-03-06T14:20:52.185Z,737.00
2023-03-06T14:21:52.259Z,734.00
2023-03-06T14:22:52.248Z,732.00
2023-03-06T14:23:52.231Z,734.00
2023-03-06T14:24:52.229Z,731.00
2023-03-06T14:25:52.233Z,733.00
2023-03-06T14:26:52.238Z,733.00
2023-03-06T14:27:53.560Z,731.00
2023-03-06T14:28:52.392Z,731.00
2023-03-06T14:29:52.389Z,731.00
2023-03-06T14:30:52.442Z,732.00
2023-03-06T14:31:52.374Z,732.00
2023-03-06T14:32:52.352Z,730.00
2023-03-06T14:33:52.360Z,728.00
2023-03-06T14:34:52.378Z,723.00
2023-03-06T14:35:53.245Z,721.00
2023-03-06T14:36:52.364Z,721.00
2023-03-06T14:37:52.364Z,719.00
2023-03-06T14:38:52.371Z,719.00
2023-03-06T14:39:52.357Z,719.00
2023-03-06T14:40:52.384Z,719.00
2023-03-06T14:41:52.379Z,720.00
2023-03-06T14:42:52.394Z,721.00
2023-03-06T14:43:52.415Z,721.00
2023-03-06T14:44:52.402Z,720.00
2023-03-06T14:45:52.385Z,723.00
2023-03-06T14:46:52.446Z,722.00
2023-03-06T14:47:52.419Z,721.00
2023-03-06T14:48:52.415Z,721.00
2023-03-06T14:49:52.399Z,721.00
2023-03-06T14:50:52.455Z,718.00
2023-03-06T14:51:52.416Z,715.00
2023-03-06T14:52:52.423Z,713.00
2023-03-06T14:53:52.382Z,710.00
2023-03-06T14:54:52.411Z,708.00
2023-03-06T14:55:52.440Z,704.00
2023-03-06T14:56:52.431Z,704.00
2023-03-06T14:57:52.448Z,705.00
2023-03-06T14:58:52.458Z,707.00
2023-03-06T14:59:52.450Z,706.00
2023-03-06T15:00:52.454Z,703.00
2023-03-06T15:01:52.461Z,704.00
2023-03-06T15:02:52.493Z,705.00
2023-03-06T15:03:52.429Z,703.00
2023-03-06T15:04:52.464Z,703.00
2023-03-06T15:05:52.464Z,700.00
2023-03-06T15:06:52.466Z,698.00
2023-03-06T15:07:52.456Z,694.00
2023-03-06T15:08:52.461Z,695.00
2023-03-06T15:09:52.440Z,695.00
2023-03-06T15:10:52.469Z,694.00
2023-03-06T15:11:52.500Z,694.00
2023-03-06T15:12:52.504Z,690.00
2023-03-06T15:13:52.519Z,689.00
2023-03-06T15:14:52.562Z,691.00
2023-03-06T15:15:52.630Z,691.00
2023-03-06T15:16:52.626Z,687.00
2023-03-06T15:17:52.692Z,688.00
2023-03-06T15:18:52.742Z,685.00
2023-03-06T15:19:52.817Z,683.00
2023-03-06T15:20:52.839Z,680.00
2023-03-06T15:21:52.861Z,680.00
2023-03-06T15:22:52.932Z,679.00
2023-03-06T15:23:52.936Z,678.00
2023-03-06T15:24:52.987Z,678.00
2023-03-06T15:25:52.943Z,678.00
2023-03-06T15:26:52.967Z,678.00
2023-03-06T15:27:52.977Z,682.00
2023-03-06T15:28:59.830Z,679.00
2023-03-06T15:29:53.970Z,677.00
2023-03-06T15:30:53.014Z,679.00
2023-03-06T15:31:53.049Z,678.00
2023-03-06T15:32:52.958Z,674.00
2023-03-06T15:33:52.949Z,673.00
2023-03-06T15:34:53.007Z,673.00
2023-03-06T15:35:53.027Z,675.00
2023-03-06T15:36:52.879Z,675.00
2023-03-06T15:37:52.883Z,675.00
2023-03-06T15:38:52.881Z,674.00
2023-03-06T15:39:52.888Z,670.00
2023-03-06T15:40:52.909Z,669.00
2023-03-06T15:41:52.965Z,669.00
2023-03-06T15:42:52.965Z,668.00
2023-03-06T15:43:52.988Z,671.00
2023-03-06T15:44:53.150Z,670.00
2023-03-06T15:45:53.164Z,671.00
2023-03-06T15:46:59.268Z,671.00
2023-03-06T15:47:54.179Z,669.00
2023-03-06T15:48:53.151Z,669.00
2023-03-06T15:49:53.357Z,667.00
2023-03-06T15:50:53.205Z,670.00
2023-03-06T15:51:53.141Z,669.00
2023-03-06T15:52:53.151Z,669.00
2023-03-06T15:53:55.094Z,670.00
2023-03-06T15:54:54.127Z,668.00
2023-03-06T15:55:53.113Z,668.00
2023-03-06T15:56:53.092Z,665.00
2023-03-06T15:57:53.095Z,666.00
2023-03-06T15:58:53.165Z,665.00
2023-03-06T15:59:53.104Z,666.00
2023-03-06T16:00:53.124Z,668.00
2023-03-06T16:01:53.072Z,667.00
2023-03-06T16:02:53.064Z,667.00
2023-03-06T16:03:53.099Z,667.00
2023-03-06T16:04:53.209Z,666.00
2023-03-06T16:05:53.213Z,667.00
2023-03-06T16:06:53.244Z,667.00
2023-03-06T16:07:53.286Z,667.00
2023-03-06T16:08:53.396Z,664.00
2023-03-06T16:09:53.423Z,663.00
2023-03-06T16:10:53.480Z,664.00
2023-03-06T16:11:53.526Z,662.00
2023-03-06T16:12:53.534Z,664.00
2023-03-06T16:13:53.553Z,664.00
2023-03-06T16:14:53.587Z,662.00
2023-03-06T16:15:53.583Z,663.00
2023-03-06T16:16:53.664Z,663.00
2023-03-06T16:17:53.620Z,661.00
2023-03-06T16:18:53.630Z,660.00
2023-03-06T16:19:53.657Z,659.00
2023-03-06T16:20:53.637Z,661.00
2023-03-06T16:21:53.664Z,664.00
2023-03-06T16:22:53.687Z,662.00
2023-03-06T16:23:53.681Z,664.00
2023-03-06T16:24:53.710Z,662.00
2023-03-06T16:25:53.711Z,660.00
2023-03-06T16:26:53.729Z,660.00
2023-03-06T16:27:53.775Z,659.00
2023-03-06T16:28:53.792Z,661.00
2023-03-06T16:29:53.775Z,662.00
2023-03-06T16:30:53.868Z,662.00
2023-03-06T16:31:53.894Z,661.00
2023-03-06T16:32:53.991Z,659.00
2023-03-06T16:33:54.028Z,659.00
2023-03-06T16:34:54.078Z,660.00
2023-03-06T16:35:54.179Z,657.00
2023-03-06T16:36:54.224Z,657.00
2023-03-06T16:37:54.277Z,658.00
2023-03-06T16:38:54.357Z,658.00
2023-03-06T16:39:54.412Z,655.00
2023-03-06T16:40:54.467Z,652.00
2023-03-06T16:41:54.522Z,652.00
2023-03-06T16:42:55.275Z,653.00
2023-03-06T16:43:54.658Z,652.00
2023-03-06T16:44:54.724Z,652.00
2023-03-06T16:45:54.950Z,651.00
2023-03-06T16:46:54.838Z,650.00
2023-03-06T16:47:54.908Z,653.00
2023-03-06T16:48:54.996Z,655.00
2023-03-06T16:49:55.078Z,654.00
2023-03-06T16:50:55.117Z,656.00
2023-03-06T16:51:55.197Z,656.00
2023-03-06T16:52:55.208Z,657.00
2023-03-06T16:53:55.299Z,658.00
2023-03-06T16:54:55.370Z,655.00
2023-03-06T16:55:55.424Z,654.00
2023-03-06T16:56:55.475Z,650.00
2023-03-06T16:57:55.553Z,652.00
2023-03-06T16:58:55.543Z,653.00
2023-03-06T16:59:55.611Z,653.00
2023-03-06T17:00:55.689Z,654.00
2023-03-06T17:01:55.766Z,653.00
2023-03-06T17:02:55.813Z,652.00
2023-03-06T17:03:55.897Z,651.00
2023-03-06T17:04:55.937Z,654.00
2023-03-06T17:05:56.018Z,653.00
2023-03-06T17:06:56.096Z,652.00
2023-03-06T17:07:56.113Z,651.00
2023-03-06T17:08:56.181Z,652.00
2023-03-06T17:09:56.237Z,654.00
2023-03-06T17:10:56.285Z,654.00
2023-03-06T17:11:56.349Z,655.00
2023-03-06T17:12:56.402Z,656.00
2023-03-06T17:13:56.429Z,655.00
2023-03-06T17:14:56.509Z,653.00
2023-03-06T17:15:56.657Z,651.00
2023-03-06T17:16:57.250Z,650.00
2023-03-06T17:17:56.633Z,648.00
2023-03-06T17:18:56.646Z,647.00
2023-03-06T17:19:56.748Z,647.00
2023-03-06T17:20:56.774Z,649.00
2023-03-06T17:21:56.826Z,651.00
2023-03-06T17:22:56.855Z,652.00
2023-03-06T17:23:56.941Z,649.00
2023-03-06T17:24:56.995Z,649.00
2023-03-06T17:25:56.977Z,648.00
2023-03-06T17:26:57.015Z,647.00
2023-03-06T17:27:57.041Z,648.00
2023-03-06T17:28:57.087Z,648.00
2023-03-06T17:29:57.090Z,647.00
2023-03-06T17:30:57.180Z,647.00
2023-03-06T17:31:57.140Z,647.00
2023-03-06T17:32:57.143Z,645.00
2023-03-06T17:33:57.152Z,644.00
2023-03-06T17:34:57.175Z,642.00
2023-03-06T17:35:57.207Z,644.00
2023-03-06T17:36:57.203Z,647.00
2023-03-06T17:37:57.201Z,648.00
2023-03-06T17:38:57.215Z,644.00
2023-03-06T17:39:57.236Z,643.00
2023-03-06T17:40:57.263Z,645.00
2023-03-06T17:41:57.264Z,640.00
2023-03-06T17:42:57.276Z,642.00
2023-03-06T17:43:57.267Z,641.00
2023-03-06T17:44:57.282Z,643.00
2023-03-06T17:45:57.300Z,646.00
2023-03-06T17:46:57.341Z,643.00
2023-03-06T17:47:57.357Z,643.00
2023-03-06T17:48:57.359Z,644.00
2023-03-06T17:49:57.380Z,643.00
2023-03-06T17:50:57.399Z,644.00
2023-03-06T17:51:57.419Z,643.00
2023-03-06T17:52:57.437Z,643.00
2023-03-06T17:53:57.452Z,641.00
2023-03-06T17:54:57.475Z,647.00
2023-03-06T17:55:57.490Z,651.00
2023-03-06T17:56:57.473Z,649.00
2023-03-06T17:57:57.480Z,648.00
2023-03-06T17:58:57.507Z,646.00
2023-03-06T17:59:57.476Z,647.00
2023-03-06T18:00:57.475Z,642.00
2023-03-06T18:01:57.496Z,646.00
2023-03-06T18:02:57.454Z,648.00
2023-03-06T18:03:57.480Z,648.00
2023-03-06T18:04:57.534Z,645.00
2023-03-06T18:05:57.472Z,644.00
2023-03-06T18:06:57.514Z,639.00
2023-03-06T18:07:57.577Z,636.00
2023-03-06T18:08:57.558Z,639.00
2023-03-06T18:09:57.567Z,641.00
2023-03-06T18:10:57.571Z,641.00
2023-03-06T18:11:57.594Z,639.00
2023-03-06T18:13:57.590Z,642.00
2023-03-06T18:14:57.616Z,645.00
2023-03-06T18:15:57.640Z,642.00
2023-03-06T18:16:57.602Z,643.00
2023-03-06T18:17:57.625Z,640.00
2023-03-06T18:19:57.699Z,639.00
2023-03-06T18:20:57.685Z,639.00
2023-03-06T18:21:57.685Z,638.00
2023-03-06T18:22:57.670Z,637.00
2023-03-06T18:23:57.713Z,637.00
2023-03-06T18:24:57.707Z,638.00
2023-03-06T18:25:57.750Z,641.00
2023-03-06T18:26:57.796Z,641.00
2023-03-06T18:27:57.767Z,642.00
2023-03-06T18:28:57.799Z,639.00
2023-03-06T18:29:57.834Z,640.00
2023-03-06T18:30:57.823Z,640.00
2023-03-06T18:31:57.847Z,638.00
2023-03-06T18:32:57.884Z,634.00
2023-03-06T18:33:57.937Z,637.00
2023-03-06T18:34:57.880Z,639.00
2023-03-06T18:35:57.918Z,640.00
2023-03-06T18:36:57.906Z,638.00
2023-03-06T18:37:57.966Z,639.00
2023-03-06T18:38:57.933Z,639.00
2023-03-06T18:39:58.061Z,635.00
2023-03-06T18:40:57.938Z,632.00
2023-03-06T18:41:57.948Z,631.00
2023-03-06T18:42:57.978Z,632.00
2023-03-06T18:43:58.007Z,634.00
2023-03-06T18:44:58.012Z,633.00
2023-03-06T18:45:58.098Z,633.00
2023-03-06T18:46:58.063Z,635.00
2023-03-06T18:48:58.105Z,638.00
2023-03-06T18:49:58.124Z,638.00
2023-03-06T18:50:58.154Z,638.00
2023-03-06T18:51:58.125Z,636.00
2023-03-06T18:52:58.088Z,636.00
2023-03-06T18:53:58.182Z,634.00
2023-03-06T18:55:58.119Z,635.00
2023-03-06T18:56:58.089Z,633.00
2023-03-06T18:57:58.091Z,631.00
2023-03-06T18:58:58.087Z,631.00
2023-03-06T18:59:58.076Z,631.00
2023-03-06T19:00:59.475Z,630.00
2023-03-06T19:01:58.075Z,630.00
2023-03-06T19:03:58.177Z,635.00
2023-03-06T19:04:58.150Z,636.00
2023-03-06T19:05:58.124Z,634.00
2023-03-06T19:06:58.130Z,634.00
2023-03-06T19:07:58.174Z,635.00
2023-03-06T19:08:58.236Z,635.00
2023-03-06T19:09:58.224Z,634.00
2023-03-06T19:10:58.244Z,633.00
2023-03-06T19:11:58.244Z,633.00
2023-03-06T19:12:58.212Z,633.00
2023-03-06T19:13:58.235Z,632.00
2023-03-06T19:14:58.250Z,632.00
2023-03-06T19:15:58.256Z,632.00
2023-03-06T19:16:58.219Z,631.00
2023-03-06T19:17:58.253Z,632.00
2023-03-06T19:18:58.206Z,632.00
2023-03-06T19:19:58.227Z,633.00
2023-03-06T19:20:58.277Z,631.00
2023-03-06T19:21:58.254Z,630.00
2023-03-06T19:22:58.268Z,629.00
2023-03-06T19:23:58.253Z,630.00
2023-03-06T19:24:58.271Z,630.00
2023-03-06T19:25:58.284Z,628.00
2023-03-06T19:26:58.303Z,629.00
2023-03-06T19:27:58.341Z,628.00
2023-03-06T19:28:58.309Z,625.00
2023-03-06T19:29:58.376Z,622.00
2023-03-06T19:30:58.370Z,623.00
2023-03-06T19:31:58.411Z,625.00
2023-03-06T19:32:58.352Z,624.00
2023-03-06T19:33:58.359Z,627.00
2023-03-06T19:34:58.356Z,627.00
2023-03-06T19:35:58.396Z,626.00
2023-03-06T19:36:58.373Z,623.00
2023-03-06T19:37:58.320Z,622.00
2023-03-06T19:38:58.332Z,619.00
2023-03-06T19:39:58.350Z,618.00
2023-03-06T19:40:58.340Z,617.00
2023-03-06T19:41:58.324Z,616.00
2023-03-06T19:42:58.325Z,617.00
2023-03-06T19:43:58.338Z,616.00
2023-03-06T19:44:58.338Z,616.00
2023-03-06T19:45:58.359Z,616.00
2023-03-06T19:46:58.318Z,612.00
2023-03-06T19:47:58.324Z,614.00
2023-03-06T19:48:58.328Z,612.00
2023-03-06T19:49:58.327Z,613.00
2023-03-06T19:50:58.351Z,614.00
2023-03-06T19:51:58.328Z,615.00
2023-03-06T19:52:58.366Z,619.00
2023-03-06T19:53:58.333Z,621.00
2023-03-06T19:54:58.347Z,622.00
2023-03-06T19:55:58.301Z,621.00
2023-03-06T19:56:58.310Z,622.00
2023-03-06T19:57:58.325Z,619.00